createdAt,value
2017-10-31T00:01:26.336Z,8.00
2017-10-31T00:03:53.824Z,8.00
2017-10-31T00:06:21.287Z,8.00
2017-10-31T00:08:48.754Z,8.00
2017-10-31T00:11:16.979Z,7.90
2017-10-31T00:13:44.453Z,7.90
2017-10-31T00:16:11.922Z,7.90
2017-10-31T00:18:39.478Z,7.80
2017-10-31T00:24:00.126Z,7.90
2017-10-31T00:26:27.752Z,7.90
2017-10-31T00:28:55.235Z,7.80
2017-10-31T00:31:22.743Z,7.90
2017-10-31T00:33:50.247Z,7.90
2017-10-31T00:36:17.983Z,8.00
2017-10-31T00:38:45.449Z,7.90
2017-10-31T00:41:12.934Z,8.00
2017-10-31T00:43:40.403Z,8.00
2017-10-31T00:46:08.668Z,7.90
2017-10-31T00:48:36.128Z,8.00
2017-10-31T00:51:04.372Z,7.80
2017-10-31T00:53:31.846Z,8.10
2017-10-31T00:55:59.319Z,7.70
2017-10-31T00:58:26.840Z,7.80
2017-10-31T01:00:54.321Z,7.70
2017-10-31T01:03:21.803Z,7.80
2017-10-31T01:05:50.038Z,7.90
2017-10-31T01:08:17.536Z,7.90
2017-10-31T01:10:45.003Z,7.90
2017-10-31T01:13:13.267Z,7.90
2017-10-31T01:15:40.742Z,7.90
2017-10-31T01:18:08.207Z,7.90
2017-10-31T01:20:36.456Z,7.90
2017-10-31T01:23:04.017Z,7.90
2017-10-31T01:25:31.487Z,7.80
2017-10-31T01:27:58.943Z,7.90
2017-10-31T01:30:26.437Z,7.80
2017-10-31T01:32:53.894Z,7.70
2017-10-31T01:35:21.782Z,7.80
2017-10-31T01:37:49.276Z,7.80
2017-10-31T01:40:16.735Z,7.80
2017-10-31T01:42:44.211Z,7.70
2017-10-31T01:45:12.439Z,7.80
2017-10-31T01:47:39.913Z,7.90
2017-10-31T01:50:07.376Z,7.70
2017-10-31T01:52:34.941Z,7.70
2017-10-31T01:55:02.411Z,7.70
2017-10-31T01:57:30.651Z,7.80
2017-10-31T01:59:58.113Z,7.80
2017-10-31T02:02:25.575Z,7.70
2017-10-31T02:04:53.034Z,7.70
2017-10-31T02:07:20.504Z,7.80
2017-10-31T02:09:47.967Z,7.80
2017-10-31T02:12:15.531Z,7.70
2017-10-31T02:14:43.086Z,7.60
2017-10-31T02:17:10.657Z,7.70
2017-10-31T02:19:38.131Z,7.80
2017-10-31T02:22:06.383Z,7.80
2017-10-31T02:24:33.883Z,7.90
2017-10-31T02:27:02.219Z,7.80
2017-10-31T02:29:29.685Z,8.00
2017-10-31T02:31:57.244Z,7.80
2017-10-31T02:34:24.707Z,7.90
2017-10-31T02:36:52.182Z,7.90
2017-10-31T02:39:20.415Z,7.80
2017-10-31T02:41:48.674Z,7.90
2017-10-31T02:44:16.152Z,7.80
2017-10-31T02:46:43.607Z,7.80
2017-10-31T02:49:11.077Z,7.90
2017-10-31T02:51:38.535Z,7.90
2017-10-31T02:54:06.095Z,7.80
2017-10-31T02:56:33.558Z,8.00
2017-10-31T02:59:01.036Z,7.90
2017-10-31T03:01:29.262Z,7.90
2017-10-31T03:03:56.729Z,8.00
2017-10-31T03:06:24.218Z,7.80
2017-10-31T03:08:51.688Z,7.80
2017-10-31T03:11:19.928Z,7.90
2017-10-31T03:13:47.401Z,7.80
2017-10-31T03:16:14.875Z,7.90
2017-10-31T03:18:42.340Z,7.90
2017-10-31T03:21:10.559Z,7.80
2017-10-31T03:23:38.033Z,8.10
2017-10-31T03:26:05.492Z,7.90
2017-10-31T03:28:32.955Z,7.90
2017-10-31T03:31:00.437Z,7.90
2017-10-31T03:33:27.895Z,7.80
2017-10-31T03:35:55.367Z,7.80
2017-10-31T03:38:23.687Z,7.60
2017-10-31T03:40:51.179Z,7.60
2017-10-31T03:43:18.656Z,7.60
2017-10-31T03:45:46.887Z,7.80
2017-10-31T03:48:14.355Z,7.60
2017-10-31T03:50:41.827Z,8.00
2017-10-31T03:53:09.289Z,7.70
2017-10-31T03:55:36.763Z,8.00
2017-10-31T03:58:05.028Z,7.80
2017-10-31T04:00:32.485Z,7.80
2017-10-31T04:02:59.952Z,7.80
2017-10-31T04:05:27.502Z,7.70
2017-10-31T04:07:55.059Z,7.80
2017-10-31T04:10:22.540Z,7.80
2017-10-31T04:12:50.767Z,7.70
2017-10-31T04:15:18.257Z,7.90
2017-10-31T04:17:45.712Z,7.80
2017-10-31T04:20:13.283Z,7.70
2017-10-31T04:22:40.737Z,7.60
2017-10-31T04:25:08.241Z,7.60
2017-10-31T04:27:35.754Z,7.60
2017-10-31T04:30:03.320Z,7.70
2017-10-31T04:32:30.869Z,7.60
2017-10-31T04:34:58.322Z,7.60
2017-10-31T04:37:25.812Z,7.60
2017-10-31T04:39:54.064Z,7.80
2017-10-31T04:42:22.295Z,7.70
2017-10-31T04:44:49.793Z,7.80
2017-10-31T04:47:17.268Z,7.70
2017-10-31T04:49:44.752Z,7.80
2017-10-31T04:52:12.275Z,7.80
2017-10-31T04:54:39.847Z,7.80
2017-10-31T04:57:07.310Z,7.90
2017-10-31T04:59:35.535Z,7.90
2017-10-31T05:02:03.007Z,8.00
2017-10-31T05:04:30.615Z,7.90
2017-10-31T05:06:58.868Z,8.00
2017-10-31T05:09:26.336Z,7.90
2017-10-31T05:11:53.795Z,8.00
2017-10-31T05:14:22.015Z,8.00
2017-10-31T05:16:49.497Z,8.20
2017-10-31T05:19:16.973Z,8.00
2017-10-31T05:21:44.434Z,7.90
2017-10-31T05:24:11.897Z,7.80
2017-10-31T05:26:39.371Z,7.80
2017-10-31T05:29:07.596Z,7.70
2017-10-31T05:31:35.108Z,7.80
2017-10-31T05:34:03.331Z,7.80
2017-10-31T05:36:30.799Z,8.00
2017-10-31T05:38:58.272Z,7.70
2017-10-31T05:41:25.736Z,7.70
2017-10-31T05:43:53.206Z,7.60
2017-10-31T05:46:20.743Z,7.60
2017-10-31T05:48:48.221Z,7.60
2017-10-31T05:51:16.444Z,7.50
2017-10-31T05:53:43.923Z,7.60
2017-10-31T05:56:11.385Z,7.50
2017-10-31T05:58:38.863Z,7.60
2017-10-31T06:01:06.320Z,7.40
2017-10-31T06:03:34.591Z,7.40
2017-10-31T06:06:02.076Z,7.50
2017-10-31T06:08:29.601Z,7.40
2017-10-31T06:10:57.064Z,7.50
2017-10-31T06:13:24.553Z,7.60
2017-10-31T06:15:52.026Z,7.40
2017-10-31T06:18:19.556Z,7.50
2017-10-31T06:20:47.015Z,7.50
2017-10-31T06:23:20.847Z,7.50
2017-10-31T06:26:09.175Z,7.80
2017-10-31T06:28:43.104Z,7.50
2017-10-31T06:31:16.339Z,7.70
2017-10-31T06:33:43.922Z,7.50
2017-10-31T06:36:11.480Z,7.50
2017-10-31T06:38:39.043Z,7.60
2017-10-31T06:41:06.603Z,7.50
2017-10-31T06:43:34.106Z,7.40
2017-10-31T06:46:01.564Z,7.30
2017-10-31T06:48:29.084Z,7.40
2017-10-31T06:50:56.559Z,7.40
2017-10-31T06:53:24.812Z,7.40
2017-10-31T06:55:52.280Z,7.50
2017-10-31T06:58:19.789Z,7.40
2017-10-31T07:00:47.262Z,7.50
2017-10-31T07:03:15.419Z,7.30
2017-10-31T07:05:42.916Z,7.30
2017-10-31T07:08:10.537Z,7.30
2017-10-31T07:10:38.000Z,7.40
2017-10-31T07:13:05.491Z,7.40
2017-10-31T07:15:32.969Z,7.30
2017-10-31T07:18:00.511Z,7.30
2017-10-31T07:20:27.991Z,7.40
2017-10-31T07:22:56.225Z,7.60
2017-10-31T07:25:23.691Z,7.80
2017-10-31T07:27:51.162Z,7.60
2017-10-31T07:30:18.652Z,7.60
2017-10-31T07:32:46.879Z,7.70
2017-10-31T07:35:14.361Z,7.80
2017-10-31T07:37:41.810Z,7.70
2017-10-31T07:40:09.293Z,7.80
2017-10-31T07:42:36.748Z,7.70
2017-10-31T07:45:05.024Z,7.80
2017-10-31T07:47:33.262Z,7.80
2017-10-31T07:50:00.768Z,7.80
2017-10-31T07:52:29.031Z,8.10
2017-10-31T07:54:56.505Z,8.20
2017-10-31T07:57:24.755Z,8.10
2017-10-31T07:59:52.311Z,8.10
2017-10-31T08:02:20.283Z,8.20
2017-10-31T08:04:47.740Z,8.20
2017-10-31T08:07:15.233Z,8.20
2017-10-31T08:09:43.469Z,8.40
2017-10-31T08:12:10.939Z,8.40
2017-10-31T08:14:38.403Z,8.30
2017-10-31T08:17:07.380Z,8.50
2017-10-31T08:19:34.864Z,8.50
2017-10-31T08:22:02.332Z,8.50
2017-10-31T08:24:30.566Z,8.50
2017-10-31T08:26:58.047Z,8.40
2017-10-31T08:29:26.281Z,8.50
2017-10-31T08:31:53.760Z,8.40
2017-10-31T08:34:21.227Z,8.40
2017-10-31T08:36:48.686Z,8.40
2017-10-31T08:39:16.150Z,8.50
2017-10-31T08:41:43.699Z,8.60
2017-10-31T08:44:11.164Z,8.70
2017-10-31T08:46:38.647Z,8.80
2017-10-31T08:49:06.883Z,8.70
2017-10-31T08:51:34.358Z,8.60
2017-10-31T08:54:01.822Z,8.70
2017-10-31T08:56:29.371Z,8.80
2017-10-31T08:58:56.832Z,8.90
2017-10-31T09:01:24.291Z,8.90
2017-10-31T09:03:51.761Z,9.00
2017-10-31T09:06:19.222Z,9.10
2017-10-31T09:08:47.496Z,9.10
2017-10-31T09:11:14.979Z,8.90
2017-10-31T09:13:43.222Z,9.20
2017-10-31T09:16:10.699Z,9.10
2017-10-31T09:18:38.238Z,9.20
2017-10-31T09:21:05.698Z,9.20
2017-10-31T09:23:33.160Z,9.20
2017-10-31T09:26:00.615Z,9.00
2017-10-31T09:28:28.075Z,8.80
2017-10-31T09:30:55.551Z,9.00
2017-10-31T09:33:23.777Z,9.00
2017-10-31T09:35:51.238Z,9.00
2017-10-31T09:38:18.695Z,8.90
2017-10-31T09:40:46.163Z,8.90
2017-10-31T09:43:17.903Z,9.10
2017-10-31T09:45:45.447Z,9.40
2017-10-31T09:48:12.928Z,9.20
2017-10-31T09:50:40.397Z,9.30
2017-10-31T09:53:07.867Z,9.30
2017-10-31T09:55:35.386Z,9.30
2017-10-31T09:58:02.866Z,9.20
2017-10-31T10:00:30.378Z,9.20
2017-10-31T10:02:58.609Z,9.50
2017-10-31T10:05:26.100Z,9.50
2017-10-31T10:07:53.551Z,9.70
2017-10-31T10:10:21.019Z,9.70
2017-10-31T10:12:48.471Z,9.80
2017-10-31T10:15:15.934Z,9.80
2017-10-31T10:17:43.391Z,9.90
2017-10-31T10:20:11.623Z,9.80
2017-10-31T10:22:39.074Z,9.70
2017-10-31T10:25:06.527Z,9.90
2017-10-31T10:27:34.008Z,10.00
2017-10-31T10:30:01.469Z,10.00
2017-10-31T10:32:28.938Z,10.00
2017-10-31T10:34:56.401Z,10.00
2017-10-31T10:37:23.863Z,10.00
2017-10-31T10:39:51.347Z,10.00
2017-10-31T10:42:20.387Z,9.90
2017-10-31T10:44:47.856Z,10.10
2017-10-31T10:47:15.600Z,9.80
2017-10-31T10:49:43.060Z,9.80
2017-10-31T10:52:10.518Z,9.60
2017-10-31T10:54:38.008Z,9.60
2017-10-31T10:57:05.471Z,9.70
2017-10-31T10:59:33.714Z,9.80
2017-10-31T11:02:01.171Z,9.80
2017-10-31T11:04:28.637Z,9.90
2017-10-31T11:06:56.100Z,9.90
2017-10-31T11:09:23.559Z,10.00
2017-10-31T11:11:51.140Z,10.00
2017-10-31T11:14:19.380Z,10.00
2017-10-31T11:16:46.839Z,10.20
2017-10-31T11:19:14.307Z,10.10
2017-10-31T11:21:41.771Z,10.10
2017-10-31T11:24:09.245Z,10.20
2017-10-31T11:26:36.699Z,10.30
2017-10-31T11:29:04.180Z,10.30
2017-10-31T11:31:32.413Z,10.20
2017-10-31T11:33:59.890Z,10.20
2017-10-31T11:36:27.361Z,10.10
2017-10-31T11:38:55.600Z,10.30
2017-10-31T11:41:23.068Z,10.30
2017-10-31T11:43:50.559Z,10.40
2017-10-31T11:46:18.016Z,10.50
2017-10-31T11:48:45.494Z,10.50
2017-10-31T11:51:13.720Z,10.50
2017-10-31T11:53:41.211Z,10.80
2017-10-31T11:56:08.672Z,10.30
2017-10-31T11:58:36.144Z,10.40
2017-10-31T12:01:04.379Z,10.50
2017-10-31T12:03:31.848Z,10.50
2017-10-31T12:06:00.125Z,10.60
2017-10-31T12:08:27.636Z,10.50
2017-10-31T12:10:55.119Z,10.50
2017-10-31T12:13:22.589Z,10.60
2017-10-31T12:15:50.060Z,10.60
2017-10-31T12:18:19.044Z,10.60
2017-10-31T12:20:46.515Z,10.80
2017-10-31T12:23:15.530Z,10.90
2017-10-31T12:25:43.786Z,10.80
2017-10-31T12:28:11.247Z,10.80
2017-10-31T12:30:38.718Z,10.80
2017-10-31T12:33:06.951Z,10.60
2017-10-31T12:35:34.419Z,10.60
2017-10-31T12:38:01.888Z,10.60
2017-10-31T12:40:29.448Z,10.70
2017-10-31T12:42:57.011Z,10.70
2017-10-31T12:45:24.476Z,10.70
2017-10-31T12:47:51.932Z,10.70
2017-10-31T12:50:20.208Z,10.60
2017-10-31T12:52:47.671Z,10.60
2017-10-31T12:55:15.151Z,10.60
2017-10-31T12:57:43.381Z,10.60
2017-10-31T13:00:10.874Z,10.60
2017-10-31T13:02:40.039Z,10.60
2017-10-31T13:05:07.504Z,10.60
2017-10-31T13:07:34.990Z,10.60
2017-10-31T13:10:03.225Z,10.70
2017-10-31T13:12:30.688Z,10.50
2017-10-31T13:14:58.163Z,10.70
2017-10-31T13:17:32.448Z,10.60
2017-10-31T13:19:59.915Z,10.50
2017-10-31T13:22:27.395Z,10.40
2017-10-31T13:24:54.860Z,10.40
2017-10-31T13:27:22.768Z,10.50
2017-10-31T13:29:50.432Z,10.50
2017-10-31T13:32:18.405Z,10.60
2017-10-31T13:34:46.363Z,10.60
2017-10-31T13:37:15.061Z,10.60
2017-10-31T13:39:43.123Z,10.60
2017-10-31T13:42:11.821Z,10.60
2017-10-31T13:44:40.357Z,10.80
2017-10-31T13:47:08.998Z,10.70
2017-10-31T13:49:36.502Z,10.70
2017-10-31T13:52:04.414Z,10.80
2017-10-31T13:54:31.928Z,10.80
2017-10-31T13:57:00.182Z,10.80
2017-10-31T13:59:27.644Z,10.80
2017-10-31T14:01:55.347Z,10.80
2017-10-31T14:04:23.728Z,10.50
2017-10-31T14:06:52.584Z,10.50
2017-10-31T14:09:20.902Z,10.70
2017-10-31T14:14:42.153Z,10.70
2017-10-31T14:17:09.700Z,10.40
2017-10-31T14:19:38.215Z,10.30
2017-10-31T14:22:05.720Z,10.50
2017-10-31T14:24:33.188Z,10.30
2017-10-31T14:27:00.686Z,10.30
2017-10-31T14:29:28.148Z,10.30
2017-10-31T14:31:55.620Z,10.30
2017-10-31T14:34:23.079Z,10.30
2017-10-31T14:36:50.545Z,10.30
2017-10-31T14:39:18.005Z,10.30
2017-10-31T14:41:45.479Z,10.30
2017-10-31T14:44:12.987Z,10.30
2017-10-31T14:46:40.480Z,10.30
2017-10-31T14:49:07.947Z,10.30
2017-10-31T14:51:35.467Z,10.20
2017-10-31T14:54:02.928Z,10.10
2017-10-31T14:56:30.415Z,10.20
2017-10-31T14:58:57.904Z,10.20
2017-10-31T15:01:25.436Z,10.30
2017-10-31T15:03:52.952Z,10.30
2017-10-31T15:06:20.499Z,10.20
2017-10-31T15:08:48.081Z,10.10
2017-10-31T15:11:15.691Z,10.10
2017-10-31T15:13:43.176Z,10.00
2017-10-31T15:16:11.462Z,10.00
2017-10-31T15:18:38.975Z,9.80
2017-10-31T15:21:06.428Z,9.90
2017-10-31T15:23:33.895Z,9.90
2017-10-31T15:26:01.362Z,9.80
2017-10-31T15:28:28.828Z,9.80
2017-10-31T15:30:56.283Z,9.90
2017-10-31T15:33:23.755Z,9.80
2017-10-31T15:35:51.971Z,9.80
2017-10-31T15:38:19.443Z,9.90
2017-10-31T15:40:46.899Z,9.70
2017-10-31T15:43:14.387Z,9.70
2017-10-31T15:45:41.843Z,9.70
2017-10-31T15:48:09.331Z,9.70
2017-10-31T15:50:37.560Z,9.70
2017-10-31T15:53:05.016Z,9.80
2017-10-31T15:55:32.500Z,9.60
2017-10-31T15:58:00.032Z,9.60
2017-10-31T16:00:27.502Z,9.60
2017-10-31T16:02:54.959Z,9.60
2017-10-31T16:05:22.481Z,9.50
2017-10-31T16:07:49.950Z,9.60
2017-10-31T16:10:17.410Z,9.50
2017-10-31T16:12:44.872Z,9.50
2017-10-31T16:15:15.411Z,9.50
2017-10-31T16:17:42.883Z,9.50
2017-10-31T16:20:10.370Z,9.50
2017-10-31T16:22:38.589Z,9.60
2017-10-31T16:25:06.052Z,9.80
2017-10-31T16:27:33.514Z,9.60
2017-10-31T16:30:00.979Z,9.60
2017-10-31T16:32:28.432Z,9.60
2017-10-31T16:34:55.894Z,9.60
2017-10-31T16:37:23.351Z,9.60
2017-10-31T16:39:50.845Z,9.60
2017-10-31T16:42:18.299Z,9.60
2017-10-31T16:44:45.768Z,9.70
2017-10-31T16:47:13.986Z,9.60
2017-10-31T16:49:41.471Z,9.60
2017-10-31T16:52:08.934Z,9.70
2017-10-31T16:54:36.391Z,9.60
2017-10-31T16:57:03.848Z,9.70
2017-10-31T16:59:31.307Z,9.60
2017-10-31T17:01:58.780Z,9.60
2017-10-31T17:04:27.765Z,9.50
2017-10-31T17:06:55.322Z,9.50
2017-10-31T17:09:22.877Z,9.50
2017-10-31T17:11:50.349Z,9.50
2017-10-31T17:14:19.315Z,9.40
2017-10-31T17:16:46.899Z,9.30
2017-10-31T17:19:14.367Z,9.50
2017-10-31T17:21:41.827Z,9.50
2017-10-31T17:24:09.299Z,9.60
2017-10-31T17:26:37.528Z,9.50
2017-10-31T17:29:05.007Z,9.70
2017-10-31T17:31:32.564Z,9.50
2017-10-31T17:34:00.047Z,9.50
2017-10-31T17:36:27.512Z,9.50
2017-10-31T17:38:55.766Z,9.50
2017-10-31T17:41:23.246Z,9.40
2017-10-31T17:43:51.476Z,9.50
2017-10-31T17:46:19.225Z,9.40
2017-10-31T17:48:46.736Z,9.40
2017-10-31T17:51:14.995Z,9.40
2017-10-31T17:53:42.459Z,9.40
2017-10-31T17:56:11.431Z,9.30
2017-10-31T17:58:38.888Z,9.40
2017-10-31T18:01:06.347Z,9.40
2017-10-31T18:03:33.832Z,9.40
2017-10-31T18:06:02.056Z,9.40
2017-10-31T18:08:29.541Z,9.70
2017-10-31T18:10:56.992Z,9.50
2017-10-31T18:13:24.483Z,9.40
2017-10-31T18:15:52.725Z,9.50
2017-10-31T18:18:20.195Z,9.70
2017-10-31T18:20:47.659Z,9.50
2017-10-31T18:23:15.232Z,9.50
2017-10-31T18:25:42.688Z,9.50
2017-10-31T18:28:10.923Z,9.50
2017-10-31T18:30:38.391Z,9.60
2017-10-31T18:33:05.886Z,9.50
2017-10-31T18:35:34.118Z,9.50
2017-10-31T18:38:01.588Z,9.60
2017-10-31T18:40:29.051Z,9.60
2017-10-31T18:42:56.524Z,9.60
2017-10-31T18:45:23.982Z,9.60
2017-10-31T18:47:51.451Z,9.60
2017-10-31T18:50:18.907Z,9.60
2017-10-31T18:52:46.379Z,9.60
2017-10-31T18:55:14.611Z,9.60
2017-10-31T18:57:42.093Z,9.50
2017-10-31T19:00:09.672Z,9.60
2017-10-31T19:02:37.927Z,9.50
2017-10-31T19:05:05.397Z,9.60
2017-10-31T19:07:32.863Z,9.50
2017-10-31T19:10:01.086Z,9.50
2017-10-31T19:12:28.558Z,9.40
2017-10-31T19:14:56.143Z,9.50
2017-10-31T19:17:23.610Z,9.50
2017-10-31T19:19:51.082Z,9.50
2017-10-31T19:22:19.760Z,9.50
2017-10-31T19:24:47.224Z,9.60
2017-10-31T19:27:15.476Z,9.50
2017-10-31T19:29:43.045Z,9.50
2017-10-31T19:32:11.278Z,9.60
2017-10-31T19:34:38.756Z,9.50
2017-10-31T19:37:06.220Z,9.60
2017-10-31T19:39:33.709Z,9.60
2017-10-31T19:42:01.170Z,9.60
2017-10-31T19:44:29.442Z,9.70
2017-10-31T19:46:56.901Z,9.70
2017-10-31T19:49:25.147Z,9.70
2017-10-31T19:51:52.604Z,9.70
2017-10-31T19:54:20.105Z,9.70
2017-10-31T19:56:48.323Z,9.80
2017-10-31T19:59:15.819Z,9.80
2017-10-31T20:01:44.295Z,9.80
2017-10-31T20:04:11.872Z,9.80
2017-10-31T20:06:40.108Z,9.80
2017-10-31T20:09:07.584Z,10.00
2017-10-31T20:11:35.071Z,9.80
2017-10-31T20:14:03.308Z,9.80
2017-10-31T20:16:31.608Z,9.80
2017-10-31T20:18:59.850Z,9.80
2017-10-31T20:21:27.341Z,10.10
2017-10-31T20:23:54.820Z,9.80
2017-10-31T20:26:23.076Z,9.80
2017-10-31T20:28:51.383Z,9.80
2017-10-31T20:31:19.627Z,9.80
2017-10-31T20:33:47.086Z,9.90
2017-10-31T20:36:15.357Z,9.80
2017-10-31T20:38:43.184Z,9.70
2017-10-31T20:41:10.691Z,9.70
2017-10-31T20:43:38.244Z,9.70
2017-10-31T20:46:05.711Z,9.70
2017-10-31T20:48:33.199Z,9.70
2017-10-31T20:51:00.668Z,9.60
2017-10-31T20:53:28.269Z,9.50
2017-10-31T20:55:55.739Z,9.60
2017-10-31T20:58:23.294Z,9.60
2017-10-31T21:00:50.766Z,9.60
2017-10-31T21:03:18.227Z,9.60
2017-10-31T21:05:45.712Z,9.50
2017-10-31T21:08:13.945Z,9.60
2017-10-31T21:10:41.412Z,9.70
2017-10-31T21:13:08.891Z,9.50
2017-10-31T21:15:37.131Z,9.50
2017-10-31T21:18:04.605Z,9.70
2017-10-31T21:20:32.071Z,9.50
2017-10-31T21:23:01.038Z,9.50
2017-10-31T21:25:28.495Z,9.70
2017-10-31T21:27:56.000Z,9.50
2017-10-31T21:30:24.252Z,9.50
2017-10-31T21:32:51.728Z,9.70
2017-10-31T21:35:19.966Z,9.50
2017-10-31T21:37:48.972Z,9.50
2017-10-31T21:40:16.432Z,9.60
2017-10-31T21:42:43.925Z,9.50
2017-10-31T21:45:12.167Z,9.40
2017-10-31T21:47:39.656Z,9.60
2017-10-31T21:50:07.885Z,9.40
2017-10-31T21:52:35.344Z,9.50
2017-10-31T21:55:02.824Z,9.50
2017-10-31T21:57:31.807Z,9.50
2017-10-31T22:00:00.060Z,9.50
2017-10-31T22:02:27.515Z,9.70
2017-10-31T22:04:54.987Z,9.40
2017-10-31T22:07:22.501Z,9.40
2017-10-31T22:09:50.752Z,9.40
2017-10-31T22:12:18.216Z,9.40
2017-10-31T22:14:46.456Z,9.50
2017-10-31T22:17:15.302Z,9.60
2017-10-31T22:19:43.539Z,9.40
2017-10-31T22:22:11.040Z,9.50
2017-10-31T22:24:38.516Z,9.50
2017-10-31T22:27:06.159Z,9.50
2017-10-31T22:29:34.447Z,9.50
2017-10-31T22:32:01.960Z,9.50
2017-10-31T22:34:29.435Z,9.50
2017-10-31T22:36:57.668Z,9.50
2017-10-31T22:39:25.130Z,9.50
2017-10-31T22:41:52.604Z,9.40
2017-10-31T22:44:20.152Z,9.40
2017-10-31T22:46:47.614Z,9.40
2017-10-31T22:49:15.103Z,9.50
2017-10-31T22:51:43.482Z,9.50
2017-10-31T22:54:11.713Z,9.50
2017-10-31T22:56:39.207Z,9.60
2017-10-31T22:59:07.438Z,9.40
2017-10-31T23:01:34.922Z,9.30
2017-10-31T23:04:02.375Z,9.40
2017-10-31T23:06:29.855Z,9.50
2017-10-31T23:08:57.323Z,9.50
2017-10-31T23:11:25.603Z,9.50
2017-10-31T23:13:53.878Z,9.50
2017-10-31T23:16:21.352Z,9.50
2017-10-31T23:18:49.591Z,9.40
2017-10-31T23:21:17.058Z,9.30
2017-10-31T23:23:46.023Z,9.40
2017-10-31T23:26:13.497Z,9.40
2017-10-31T23:28:40.959Z,9.50
2017-10-31T23:31:08.520Z,9.40
2017-10-31T23:33:36.276Z,9.40
2017-10-31T23:36:03.843Z,9.40
2017-10-31T23:38:31.300Z,9.40
2017-10-31T23:40:58.759Z,9.40
2017-10-31T23:43:26.324Z,9.40
2017-10-31T23:45:53.810Z,9.40
2017-10-31T23:48:22.039Z,9.40
2017-10-31T23:50:49.519Z,9.40
2017-10-31T23:53:17.423Z,9.50
2017-10-31T23:55:45.657Z,9.50
2017-10-31T23:58:13.118Z,9.60
